sensor_id;sensor_type;location;lat;lon;timestamp;pressure;altitude;pressure_sealevel;temperature;humidity
9129;BME280;4599;50.906;6.786;2023-05-01T00:02:01;17601.06;;;-142.83;53.54
9129;BME280;4599;50.906;6.786;2023-05-01T00:06:23;17568.34;;;-142.83;54.01
9129;BME280;4599;50.906;6.786;2023-05-01T00:10:45;17568.34;;;-142.83;54.67
9129;BME280;4599;50.906;6.786;2023-05-01T00:15:09;17578.56;;;-142.83;54.33
9129;BME280;4599;50.906;6.786;2023-05-01T00:19:31;17531.53;;;-142.83;54.65
9129;BME280;4599;50.906;6.786;2023-05-01T00:23:53;17554.03;;;-142.83;54.40
9129;BME280;4599;50.906;6.786;2023-05-01T00:28:17;17576.53;;;-142.83;53.63
9129;BME280;4599;50.906;6.786;2023-05-01T00:32:40;17564.25;;;-142.83;52.99
9129;BME280;4599;50.906;6.786;2023-05-01T00:37:02;17562.19;;;-142.83;53.13
9129;BME280;4599;50.906;6.786;2023-05-01T00:41:24;17560.16;;;-142.83;53.32
9129;BME280;4599;50.906;6.786;2023-05-01T00:45:46;17543.78;;;-142.83;55.89
9129;BME280;4599;50.906;6.786;2023-05-01T00:50:10;17523.34;;;-142.83;57.42
9129;BME280;4599;50.906;6.786;2023-05-01T00:54:32;17498.78;;;-142.83;56.19
9129;BME280;4599;50.906;6.786;2023-05-01T00:58:54;17515.16;;;-142.83;57.39
9129;BME280;4599;50.906;6.786;2023-05-01T01:03:16;17539.69;;;-142.83;56.92
9129;BME280;4599;50.906;6.786;2023-05-01T01:07:43;17492.66;;;-142.83;58.72
9129;BME280;4599;50.906;6.786;2023-05-01T01:12:11;17466.06;;;-142.83;61.51
9129;BME280;4599;50.906;6.786;2023-05-01T01:16:39;17461.97;;;-142.83;61.95
9129;BME280;4599;50.906;6.786;2023-05-01T01:21:07;17484.47;;;-142.83;62.07
9129;BME280;4599;50.906;6.786;2023-05-01T01:30:40;17457.88;;;-142.83;62.17
9129;BME280;4599;50.906;6.786;2023-05-01T01:35:16;17470.16;;;-142.83;59.00
9129;BME280;4599;50.906;6.786;2023-05-01T01:39:44;17461.97;;;-142.83;61.87
9129;BME280;4599;50.906;6.786;2023-05-01T01:44:09;17470.16;;;-142.83;60.68
9129;BME280;4599;50.906;6.786;2023-05-01T01:48:39;17461.97;;;-142.83;61.29
9129;BME280;4599;50.906;6.786;2023-05-01T01:53:03;17461.97;;;-142.83;62.37
9129;BME280;4599;50.906;6.786;2023-05-01T01:57:26;17419.03;;;-142.83;63.65
9129;BME280;4599;50.906;6.786;2023-05-01T02:01:50;17431.28;;;-142.83;62.80
9129;BME280;4599;50.906;6.786;2023-05-01T02:06:14;17429.25;;;-142.83;62.07
9129;BME280;4599;50.906;6.786;2023-05-01T02:10:40;17421.06;;;-142.83;63.51
9129;BME280;4599;50.906;6.786;2023-05-01T02:15:05;17470.16;;;-142.83;60.58
9129;BME280;4599;50.906;6.786;2023-05-01T02:19:28;17474.25;;;-142.83;59.35
9129;BME280;4599;50.906;6.786;2023-05-01T02:23:53;17478.34;;;-142.83;59.95
9129;BME280;4599;50.906;6.786;2023-05-01T02:28:20;17468.09;;;-142.83;60.47
9129;BME280;4599;50.906;6.786;2023-05-01T02:32:44;17478.34;;;-142.83;61.92
9129;BME280;4599;50.906;6.786;2023-05-01T02:37:06;17457.88;;;-142.83;62.25
9129;BME280;4599;50.906;6.786;2023-05-01T02:41:29;17468.09;;;-142.83;63.26
9129;BME280;4599;50.906;6.786;2023-05-01T02:45:55;17425.16;;;-142.83;62.85
9129;BME280;4599;50.906;6.786;2023-05-01T02:50:19;17441.53;;;-142.83;63.13
9129;BME280;4599;50.906;6.786;2023-05-01T02:54:42;17425.16;;;-142.83;63.24
9129;BME280;4599;50.906;6.786;2023-05-01T02:59:04;17429.25;;;-142.83;63.06
9129;BME280;4599;50.906;6.786;2023-05-01T03:03:27;17433.34;;;-142.83;63.34
9129;BME280;4599;50.906;6.786;2023-05-01T03:07:49;17421.06;;;-142.83;62.58
9129;BME280;4599;50.906;6.786;2023-05-01T03:12:11;17476.28;;;-142.83;59.70
9129;BME280;4599;50.906;6.786;2023-05-01T03:16:33;17441.53;;;-142.83;60.02
9129;BME280;4599;50.906;6.786;2023-05-01T03:20:56;17470.16;;;-142.83;59.93
9129;BME280;4599;50.906;6.786;2023-05-01T03:25:18;17486.53;;;-142.83;58.00
9129;BME280;4599;50.906;6.786;2023-05-01T03:29:39;17494.69;;;-142.83;58.67
9129;BME280;4599;50.906;6.786;2023-05-01T03:34:01;17441.53;;;-142.83;59.31
9129;BME280;4599;50.906;6.786;2023-05-01T03:38:24;17455.84;;;-142.83;59.31
9129;BME280;4599;50.906;6.786;2023-05-01T03:42:46;17437.44;;;-142.83;60.23
9129;BME280;4599;50.906;6.786;2023-05-01T03:47:08;17437.44;;;-142.83;60.19
9129;BME280;4599;50.906;6.786;2023-05-01T03:51:29;17429.25;;;-142.83;60.09
9129;BME280;4599;50.906;6.786;2023-05-01T03:55:52;17412.88;;;-142.83;60.41
9129;BME280;4599;50.906;6.786;2023-05-01T04:00:14;17435.38;;;-142.83;60.46
9129;BME280;4599;50.906;6.786;2023-05-01T04:04:36;17414.94;;;-142.83;61.10
9129;BME280;4599;50.906;6.786;2023-05-01T04:08:58;17388.34;;;-142.83;62.66
9129;BME280;4599;50.906;6.786;2023-05-01T04:13:21;17402.66;;;-142.83;62.03
9129;BME280;4599;50.906;6.786;2023-05-01T04:17:43;17398.56;;;-142.83;62.55
9129;BME280;4599;50.906;6.786;2023-05-01T04:22:05;17439.47;;;-142.83;61.27
9129;BME280;4599;50.906;6.786;2023-05-01T04:26:27;17445.59;;;-142.83;61.48
9129;BME280;4599;50.906;6.786;2023-05-01T04:30:50;17408.78;;;-142.83;62.22
9129;BME280;4599;50.906;6.786;2023-05-01T04:35:12;17392.44;;;-142.83;61.68
9129;BME280;4599;50.906;6.786;2023-05-01T04:39:34;17400.59;;;-142.83;61.62
9129;BME280;4599;50.906;6.786;2023-05-01T04:43:55;17443.56;;;-142.83;61.13
9129;BME280;4599;50.906;6.786;2023-05-01T04:48:19;17441.53;;;-142.83;61.64
9129;BME280;4599;50.906;6.786;2023-05-01T04:52:41;17439.47;;;-142.83;62.00
9129;BME280;4599;50.906;6.786;2023-05-01T04:57:02;17437.44;;;-142.83;60.47
9129;BME280;4599;50.906;6.786;2023-05-01T05:01:24;17425.16;;;-142.83;60.25
9129;BME280;4599;50.906;6.786;2023-05-01T05:05:47;17478.34;;;-142.83;59.67
9129;BME280;4599;50.906;6.786;2023-05-01T05:10:09;17435.38;;;-142.83;59.93
9129;BME280;4599;50.906;6.786;2023-05-01T05:14:31;17455.84;;;-142.83;59.22
9129;BME280;4599;50.906;6.786;2023-05-01T05:18:54;17431.28;;;-142.83;60.49
9129;BME280;4599;50.906;6.786;2023-05-01T05:23:17;17492.66;;;-142.83;60.44
9129;BME280;4599;50.906;6.786;2023-05-01T05:27:39;17464.03;;;-142.83;59.72
9129;BME280;4599;50.906;6.786;2023-05-01T05:32:01;17511.06;;;-142.83;59.67
9129;BME280;4599;50.906;6.786;2023-05-01T05:36:23;17443.56;;;-142.83;59.82
9129;BME280;4599;50.906;6.786;2023-05-01T05:40:46;17494.69;;;-142.83;59.47
9129;BME280;4599;50.906;6.786;2023-05-01T05:45:08;17498.78;;;-142.83;59.55
9129;BME280;4599;50.906;6.786;2023-05-01T05:49:30;17509.03;;;-142.83;58.56
9129;BME280;4599;50.906;6.786;2023-05-01T05:53:52;17547.88;;;-142.83;59.10
9129;BME280;4599;50.906;6.786;2023-05-01T05:58:15;17554.03;;;-142.83;58.19
9129;BME280;4599;50.906;6.786;2023-05-01T06:02:37;17527.44;;;-142.83;58.12
9129;BME280;4599;50.906;6.786;2023-05-01T06:06:58;17541.75;;;-142.83;58.59
9129;BME280;4599;50.906;6.786;2023-05-01T06:11:20;17564.25;;;-142.83;57.54
9129;BME280;4599;50.906;6.786;2023-05-01T06:15:44;17562.19;;;-142.83;57.81
9129;BME280;4599;50.906;6.786;2023-05-01T06:20:08;17609.25;;;-142.83;57.49
9129;BME280;4599;50.906;6.786;2023-05-01T06:24:30;17613.34;;;-142.83;56.86
9129;BME280;4599;50.906;6.786;2023-05-01T06:28:51;17619.47;;;-142.83;56.90
9129;BME280;4599;50.906;6.786;2023-05-01T06:33:15;17627.66;;;-142.83;56.79
9129;BME280;4599;50.906;6.786;2023-05-01T06:37:36;17611.28;;;-142.83;56.04
9129;BME280;4599;50.906;6.786;2023-05-01T06:41:58;17590.84;;;-142.83;56.58
9129;BME280;4599;50.906;6.786;2023-05-01T06:46:20;17601.06;;;-142.83;56.32
9129;BME280;4599;50.906;6.786;2023-05-01T06:50:43;17633.78;;;-142.83;55.86
9129;BME280;4599;50.906;6.786;2023-05-01T06:55:06;17674.72;;;-142.83;55.33
9129;BME280;4599;50.906;6.786;2023-05-01T06:59:28;17627.66;;;-142.83;55.73
9129;BME280;4599;50.906;6.786;2023-05-01T07:03:50;17695.16;;;-142.83;54.57
9129;BME280;4599;50.906;6.786;2023-05-01T07:08:13;17678.81;;;-142.83;54.82
9129;BME280;4599;50.906;6.786;2023-05-01T07:12:35;17672.66;;;-142.83;54.13
9129;BME280;4599;50.906;6.786;2023-05-01T07:16:57;17672.66;;;-142.83;54.43
9129;BME280;4599;50.906;6.786;2023-05-01T07:21:18;17668.56;;;-142.83;53.99
9129;BME280;4599;50.906;6.786;2023-05-01T07:25:42;17727.91;;;-142.83;53.90
9129;BME280;4599;50.906;6.786;2023-05-01T07:30:05;17748.34;;;-142.83;52.91
9129;BME280;4599;50.906;6.786;2023-05-01T07:34:27;17826.09;;;-142.83;52.19
9129;BME280;4599;50.906;6.786;2023-05-01T07:38:49;17834.25;;;-142.83;51.22
9129;BME280;4599;50.906;6.786;2023-05-01T07:43:12;17852.69;;;-142.83;50.35
9129;BME280;4599;50.906;6.786;2023-05-01T07:47:34;17864.94;;;-142.83;50.47
9129;BME280;4599;50.906;6.786;2023-05-01T07:51:56;17916.09;;;-142.83;49.89
9129;BME280;4599;50.906;6.786;2023-05-01T07:56:17;17969.28;;;-142.83;49.56
9129;BME280;4599;50.906;6.786;2023-05-01T08:00:40;18004.06;;;-142.83;49.00
9129;BME280;4599;50.906;6.786;2023-05-01T08:05:02;18051.13;;;-142.83;48.21
9129;BME280;4599;50.906;6.786;2023-05-01T08:09:24;17997.94;;;-142.83;48.83
9129;BME280;4599;50.906;6.786;2023-05-01T08:13:46;17975.41;;;-142.83;48.54
9129;BME280;4599;50.906;6.786;2023-05-01T08:18:10;17948.81;;;-142.83;48.14
9129;BME280;4599;50.906;6.786;2023-05-01T08:22:32;17981.56;;;-142.83;47.90
9129;BME280;4599;50.906;6.786;2023-05-01T08:26:54;17952.91;;;-142.83;47.79
9129;BME280;4599;50.906;6.786;2023-05-01T08:31:16;18026.56;;;-142.83;47.48
9129;BME280;4599;50.906;6.786;2023-05-01T08:35:39;18030.66;;;-142.83;47.58
9129;BME280;4599;50.906;6.786;2023-05-01T08:40:00;18073.63;;;-142.83;46.88
9129;BME280;4599;50.906;6.786;2023-05-01T08:44:24;18092.03;;;-142.83;47.22
9129;BME280;4599;50.906;6.786;2023-05-01T08:48:46;18147.28;;;-142.83;46.34
9129;BME280;4599;50.906;6.786;2023-05-01T08:53:10;18243.41;;;-142.83;45.74
9129;BME280;4599;50.906;6.786;2023-05-01T08:57:35;18274.13;;;-142.83;45.38
9129;BME280;4599;50.906;6.786;2023-05-01T09:01:59;18290.47;;;-142.83;44.70
9129;BME280;4599;50.906;6.786;2023-05-01T09:06:22;18284.34;;;-142.83;44.21
9129;BME280;4599;50.906;6.786;2023-05-01T09:10:48;18411.19;;;-142.83;44.23
9129;BME280;4599;50.906;6.786;2023-05-01T09:15:11;18435.75;;;-142.83;43.19
9129;BME280;4599;50.906;6.786;2023-05-01T09:19:32;18421.41;;;-142.83;42.84
9129;BME280;4599;50.906;6.786;2023-05-01T09:23:54;18472.56;;;-142.83;43.26
9129;BME280;4599;50.906;6.786;2023-05-01T09:28:17;18628.06;;;-142.83;41.88
9129;BME280;4599;50.906;6.786;2023-05-01T09:32:39;18816.31;;;-142.83;41.15
9129;BME280;4599;50.906;6.786;2023-05-01T09:37:03;18619.88;;;-142.83;39.96
9129;BME280;4599;50.906;6.786;2023-05-01T09:41:25;18785.63;;;-142.83;39.78
9129;BME280;4599;50.906;6.786;2023-05-01T09:46:00;19348.34;;;-142.83;37.25
9129;BME280;4599;50.906;6.786;2023-05-01T09:50:31;19063.91;;;-142.83;37.40
9129;BME280;4599;50.906;6.786;2023-05-01T09:55:11;19068.00;;;-142.83;37.56
9129;BME280;4599;50.906;6.786;2023-05-01T09:59:33;19246.03;;;-142.83;38.06
9129;BME280;4599;50.906;6.786;2023-05-01T10:03:56;19280.81;;;-142.83;37.41
9129;BME280;4599;50.906;6.786;2023-05-01T10:08:18;19495.72;;;-142.83;35.90
9129;BME280;4599;50.906;6.786;2023-05-01T10:12:39;19409.75;;;-142.83;34.82
9129;BME280;4599;50.906;6.786;2023-05-01T10:17:15;19331.97;;;-142.83;34.45
9129;BME280;4599;50.906;6.786;2023-05-01T10:21:39;18967.72;;;-142.83;36.63
9129;BME280;4599;50.906;6.786;2023-05-01T10:26:01;19389.28;;;-142.83;35.90
9129;BME280;4599;50.906;6.786;2023-05-01T10:30:26;19567.34;;;-142.83;35.29
9129;BME280;4599;50.906;6.786;2023-05-01T10:35:04;19088.47;;;-142.83;34.83
9129;BME280;4599;50.906;6.786;2023-05-01T10:39:33;19080.28;;;-142.83;35.76
9129;BME280;4599;50.906;6.786;2023-05-01T10:44:19;19534.59;;;-142.83;34.77
9129;BME280;4599;50.906;6.786;2023-05-01T10:48:55;19192.81;;;-142.83;34.39
9129;BME280;4599;50.906;6.786;2023-05-01T10:53:17;19070.03;;;-142.83;35.71
9129;BME280;4599;50.906;6.786;2023-05-01T10:57:46;18951.38;;;-142.83;36.74
9129;BME280;4599;50.906;6.786;2023-05-01T11:02:20;19074.13;;;-142.83;36.22
9129;BME280;4599;50.906;6.786;2023-05-01T11:07:15;19313.56;;;-142.83;35.02
9129;BME280;4599;50.906;6.786;2023-05-01T11:11:46;18975.91;;;-142.83;36.63
9129;BME280;4599;50.906;6.786;2023-05-01T11:16:41;18980.00;;;-142.83;36.28
9129;BME280;4599;50.906;6.786;2023-05-01T11:21:03;18971.81;;;-142.83;35.85
9129;BME280;4599;50.906;6.786;2023-05-01T11:25:27;18916.56;;;-142.83;36.55
9129;BME280;4599;50.906;6.786;2023-05-01T11:29:49;18916.56;;;-142.83;35.48
9129;BME280;4599;50.906;6.786;2023-05-01T11:34:12;18849.06;;;-142.83;35.17
9129;BME280;4599;50.906;6.786;2023-05-01T11:38:34;18998.44;;;-142.83;34.01
9129;BME280;4599;50.906;6.786;2023-05-01T11:43:00;18793.81;;;-142.83;36.16
9129;BME280;4599;50.906;6.786;2023-05-01T11:47:22;18703.78;;;-142.83;35.02
9129;BME280;4599;50.906;6.786;2023-05-01T11:51:55;18746.75;;;-142.83;35.51
9129;BME280;4599;50.906;6.786;2023-05-01T11:56:20;18742.66;;;-142.83;37.33
9129;BME280;4599;50.906;6.786;2023-05-01T12:00:49;18720.16;;;-142.83;35.34
9129;BME280;4599;50.906;6.786;2023-05-01T12:05:14;18744.69;;;-142.83;35.22
9129;BME280;4599;50.906;6.786;2023-05-01T12:09:38;18738.56;;;-142.83;36.69
9129;BME280;4599;50.906;6.786;2023-05-01T12:14:00;18722.19;;;-142.83;37.75
9129;BME280;4599;50.906;6.786;2023-05-01T12:18:22;18750.84;;;-142.83;35.97
9129;BME280;4599;50.906;6.786;2023-05-01T12:22:50;18883.84;;;-142.83;33.76
9129;BME280;4599;50.906;6.786;2023-05-01T12:27:13;19765.84;;;-142.83;34.52
9129;BME280;4599;50.906;6.786;2023-05-01T12:31:35;19383.16;;;-142.83;33.30
9129;BME280;4599;50.906;6.786;2023-05-01T12:36:08;19776.09;;;-142.83;31.21
9129;BME280;4599;50.906;6.786;2023-05-01T12:40:30;19608.25;;;-142.83;31.51
9129;BME280;4599;50.906;6.786;2023-05-01T12:44:59;19411.78;;;-142.83;30.77
9129;BME280;4599;50.906;6.786;2023-05-01T12:49:22;19217.38;;;-142.83;31.58
9129;BME280;4599;50.906;6.786;2023-05-01T12:53:44;19104.84;;;-142.83;31.84
9129;BME280;4599;50.906;6.786;2023-05-01T12:58:06;19156.00;;;-142.83;31.61
9129;BME280;4599;50.906;6.786;2023-05-01T13:02:30;19084.38;;;-142.83;30.81
9129;BME280;4599;50.906;6.786;2023-05-01T13:06:53;18994.34;;;-142.83;30.84
9129;BME280;4599;50.906;6.786;2023-05-01T13:11:16;19035.25;;;-142.83;31.86
9129;BME280;4599;50.906;6.786;2023-05-01T13:15:38;19368.81;;;-142.83;33.08
9129;BME280;4599;50.906;6.786;2023-05-01T13:20:02;19153.94;;;-142.83;32.34
9129;BME280;4599;50.906;6.786;2023-05-01T13:24:34;18887.94;;;-142.83;32.01
9129;BME280;4599;50.906;6.786;2023-05-01T13:28:57;18718.09;;;-142.83;34.60
9129;BME280;4599;50.906;6.786;2023-05-01T13:33:19;18730.38;;;-142.83;35.83
9129;BME280;4599;50.906;6.786;2023-05-01T13:37:42;18664.91;;;-142.83;36.09
9129;BME280;4599;50.906;6.786;2023-05-01T13:42:04;18497.13;;;-142.83;37.61
9129;BME280;4599;50.906;6.786;2023-05-01T13:46:27;18425.50;;;-142.83;38.65
9129;BME280;4599;50.906;6.786;2023-05-01T13:50:49;18292.53;;;-142.83;40.14
9129;BME280;4599;50.906;6.786;2023-05-01T13:55:12;18294.56;;;-142.83;40.27
9129;BME280;4599;50.906;6.786;2023-05-01T13:59:37;18208.66;;;-142.83;42.13
9129;BME280;4599;50.906;6.786;2023-05-01T14:03:59;18143.19;;;-142.83;43.01
9129;BME280;4599;50.906;6.786;2023-05-01T14:08:24;18049.06;;;-142.83;47.16
9129;BME280;4599;50.906;6.786;2023-05-01T14:12:50;17957.00;;;-142.83;53.49
9129;BME280;4599;50.906;6.786;2023-05-01T14:17:15;17871.09;;;-142.83;56.85
9129;BME280;4599;50.906;6.786;2023-05-01T14:21:39;17799.50;;;-142.83;63.28
9129;BME280;4599;50.906;6.786;2023-05-01T14:26:01;17789.25;;;-142.83;61.73
9129;BME280;4599;50.906;6.786;2023-05-01T14:30:26;17801.53;;;-142.83;56.98
9129;BME280;4599;50.906;6.786;2023-05-01T14:34:48;17777.00;;;-142.83;59.84
9129;BME280;4599;50.906;6.786;2023-05-01T14:39:11;17789.25;;;-142.83;59.55
9129;BME280;4599;50.906;6.786;2023-05-01T14:43:33;17719.72;;;-142.83;63.70
9129;BME280;4599;50.906;6.786;2023-05-01T14:47:57;17729.94;;;-142.83;64.96
9129;BME280;4599;50.906;6.786;2023-05-01T14:52:19;17686.97;;;-142.83;64.90
9129;BME280;4599;50.906;6.786;2023-05-01T14:56:42;17707.44;;;-142.83;65.85
9129;BME280;4599;50.906;6.786;2023-05-01T15:01:04;17666.53;;;-142.83;65.92
9129;BME280;4599;50.906;6.786;2023-05-01T15:05:27;17654.25;;;-142.83;67.50
9129;BME280;4599;50.906;6.786;2023-05-01T15:09:49;17662.44;;;-142.83;69.57
9129;BME280;4599;50.906;6.786;2023-05-01T15:14:11;17625.63;;;-142.83;69.74
9129;BME280;4599;50.906;6.786;2023-05-01T15:18:32;17590.84;;;-142.83;71.85
9129;BME280;4599;50.906;6.786;2023-05-01T15:22:55;17652.22;;;-142.83;71.22
9129;BME280;4599;50.906;6.786;2023-05-01T15:27:17;17590.84;;;-142.83;71.54
9129;BME280;4599;50.906;6.786;2023-05-01T15:31:39;17662.44;;;-142.83;69.80
9129;BME280;4599;50.906;6.786;2023-05-01T15:36:01;17734.03;;;-142.83;68.45
9129;BME280;4599;50.906;6.786;2023-05-01T15:40:24;17789.25;;;-142.83;77.55
9129;BME280;4599;50.906;6.786;2023-05-01T15:44:46;17879.28;;;-142.83;72.31
9129;BME280;4599;50.906;6.786;2023-05-01T15:49:08;17973.38;;;-142.83;69.54
9129;BME280;4599;50.906;6.786;2023-05-01T15:53:30;18008.16;;;-142.83;62.99
9129;BME280;4599;50.906;6.786;2023-05-01T15:57:53;17932.47;;;-142.83;63.19
9129;BME280;4599;50.906;6.786;2023-05-01T16:02:15;17938.59;;;-142.83;63.30
9129;BME280;4599;50.906;6.786;2023-05-01T16:06:38;17895.63;;;-142.83;68.41
9129;BME280;4599;50.906;6.786;2023-05-01T16:11:02;17889.50;;;-142.83;61.84
9129;BME280;4599;50.906;6.786;2023-05-01T16:15:25;17862.91;;;-142.83;60.06
9129;BME280;4599;50.906;6.786;2023-05-01T16:19:47;17817.91;;;-142.83;64.35
9129;BME280;4599;50.906;6.786;2023-05-01T16:24:09;17848.59;;;-142.83;68.08
9129;BME280;4599;50.906;6.786;2023-05-01T16:28:32;17777.00;;;-142.83;68.85
9129;BME280;4599;50.906;6.786;2023-05-01T16:32:55;17774.94;;;-142.83;68.45
9129;BME280;4599;50.906;6.786;2023-05-01T16:37:20;17781.09;;;-142.83;66.62
9129;BME280;4599;50.906;6.786;2023-05-01T16:41:45;17723.81;;;-142.83;67.17
9129;BME280;4599;50.906;6.786;2023-05-01T16:46:07;17689.03;;;-142.83;67.68
9129;BME280;4599;50.906;6.786;2023-05-01T16:50:31;17693.13;;;-142.83;66.33
9129;BME280;4599;50.906;6.786;2023-05-01T16:54:53;17664.47;;;-142.83;69.74
9129;BME280;4599;50.906;6.786;2023-05-01T16:59:15;17650.16;;;-142.83;68.62
9129;BME280;4599;50.906;6.786;2023-05-01T17:03:36;17682.88;;;-142.83;68.76
9129;BME280;4599;50.906;6.786;2023-05-01T17:08:00;17603.13;;;-142.83;70.84
9129;BME280;4599;50.906;6.786;2023-05-01T17:12:21;17629.72;;;-142.83;72.37
9129;BME280;4599;50.906;6.786;2023-05-01T17:16:43;17511.06;;;-142.83;74.29
9129;BME280;4599;50.906;6.786;2023-05-01T17:21:07;17521.28;;;-142.83;75.48
9129;BME280;4599;50.906;6.786;2023-05-01T17:25:31;17539.69;;;-142.83;73.62
9129;BME280;4599;50.906;6.786;2023-05-01T17:29:52;17562.19;;;-142.83;75.76
9129;BME280;4599;50.906;6.786;2023-05-01T17:34:14;17543.78;;;-142.83;75.60
9129;BME280;4599;50.906;6.786;2023-05-01T17:38:36;17564.25;;;-142.83;77.48
9129;BME280;4599;50.906;6.786;2023-05-01T17:42:59;17543.78;;;-142.83;75.89
9129;BME280;4599;50.906;6.786;2023-05-01T17:47:21;17547.88;;;-142.83;78.71
9129;BME280;4599;50.906;6.786;2023-05-01T17:51:46;17498.78;;;-142.83;80.25
9129;BME280;4599;50.906;6.786;2023-05-01T17:56:08;17523.34;;;-142.83;80.04
9129;BME280;4599;50.906;6.786;2023-05-01T18:00:31;17496.75;;;-142.83;80.02
9129;BME280;4599;50.906;6.786;2023-05-01T18:04:53;17464.03;;;-142.83;80.55
9129;BME280;4599;50.906;6.786;2023-05-01T18:09:15;17506.97;;;-142.83;81.12
9129;BME280;4599;50.906;6.786;2023-05-01T18:13:36;17492.66;;;-142.83;81.23
9129;BME280;4599;50.906;6.786;2023-05-01T18:18:00;17459.94;;;-142.83;79.39
9129;BME280;4599;50.906;6.786;2023-05-01T18:22:22;17474.25;;;-142.83;78.20
9129;BME280;4599;50.906;6.786;2023-05-01T18:26:44;17443.56;;;-142.83;80.65
9129;BME280;4599;50.906;6.786;2023-05-01T18:31:05;17408.78;;;-142.83;81.44
9129;BME280;4599;50.906;6.786;2023-05-01T18:35:29;17416.97;;;-142.83;81.29
9129;BME280;4599;50.906;6.786;2023-05-01T18:39:52;17398.56;;;-142.83;81.58
9129;BME280;4599;50.906;6.786;2023-05-01T18:44:13;17427.19;;;-142.83;81.28
9129;BME280;4599;50.906;6.786;2023-05-01T18:48:35;17394.47;;;-142.83;81.01
9129;BME280;4599;50.906;6.786;2023-05-01T18:52:58;17425.16;;;-142.83;80.58
9129;BME280;4599;50.906;6.786;2023-05-01T18:57:20;17402.66;;;-142.83;80.99
9129;BME280;4599;50.906;6.786;2023-05-01T19:01:42;17371.97;;;-142.83;82.00
9129;BME280;4599;50.906;6.786;2023-05-01T19:06:04;17363.78;;;-142.83;80.34
9129;BME280;4599;50.906;6.786;2023-05-01T19:10:27;17410.84;;;-142.83;80.83
9129;BME280;4599;50.906;6.786;2023-05-01T19:14:49;17333.09;;;-142.83;81.30
9129;BME280;4599;50.906;6.786;2023-05-01T19:19:11;17384.25;;;-142.83;81.11
9129;BME280;4599;50.906;6.786;2023-05-01T19:23:32;17363.78;;;-142.83;81.63
9129;BME280;4599;50.906;6.786;2023-05-01T19:27:56;17310.63;;;-142.83;81.70
9129;BME280;4599;50.906;6.786;2023-05-01T19:32:17;17369.94;;;-142.83;81.16
9129;BME280;4599;50.906;6.786;2023-05-01T19:36:39;17324.94;;;-142.83;81.18
9129;BME280;4599;50.906;6.786;2023-05-01T19:41:01;17318.78;;;-142.83;80.47
9129;BME280;4599;50.906;6.786;2023-05-01T19:45:24;17335.16;;;-142.83;81.51
9129;BME280;4599;50.906;6.786;2023-05-01T19:49:46;17331.06;;;-142.83;81.50
9129;BME280;4599;50.906;6.786;2023-05-01T19:54:08;17316.75;;;-142.83;82.24
9129;BME280;4599;50.906;6.786;2023-05-01T19:58:30;17296.28;;;-142.83;81.93
9129;BME280;4599;50.906;6.786;2023-05-01T20:02:53;17294.25;;;-142.83;82.73
9129;BME280;4599;50.906;6.786;2023-05-01T20:07:16;17284.03;;;-142.83;81.99
9129;BME280;4599;50.906;6.786;2023-05-01T20:11:39;17286.06;;;-142.83;83.04
9129;BME280;4599;50.906;6.786;2023-05-01T20:16:01;17273.78;;;-142.83;83.33
9129;BME280;4599;50.906;6.786;2023-05-01T20:20:24;17281.97;;;-142.83;82.37
9129;BME280;4599;50.906;6.786;2023-05-01T20:24:46;17281.97;;;-142.83;83.20
9129;BME280;4599;50.906;6.786;2023-05-01T20:29:08;17294.25;;;-142.83;82.92
9129;BME280;4599;50.906;6.786;2023-05-01T20:33:30;17228.78;;;-142.83;82.88
9129;BME280;4599;50.906;6.786;2023-05-01T20:37:53;17296.28;;;-142.83;81.61
9129;BME280;4599;50.906;6.786;2023-05-01T20:42:15;17310.63;;;-142.83;81.87
9129;BME280;4599;50.906;6.786;2023-05-01T20:46:36;17261.53;;;-142.83;81.62
9129;BME280;4599;50.906;6.786;2023-05-01T20:50:59;17251.28;;;-142.83;82.69
9129;BME280;4599;50.906;6.786;2023-05-01T20:55:22;17228.78;;;-142.83;82.42
9129;BME280;4599;50.906;6.786;2023-05-01T20:59:47;17228.78;;;-142.83;82.33
9129;BME280;4599;50.906;6.786;2023-05-01T21:04:09;17245.16;;;-142.83;81.56
9129;BME280;4599;50.906;6.786;2023-05-01T21:08:32;17284.03;;;-142.83;82.27
9129;BME280;4599;50.906;6.786;2023-05-01T21:12:55;17253.34;;;-142.83;82.31
9129;BME280;4599;50.906;6.786;2023-05-01T21:17:17;17263.56;;;-142.83;82.66
9129;BME280;4599;50.906;6.786;2023-05-01T21:21:39;17236.97;;;-142.83;81.42
9129;BME280;4599;50.906;6.786;2023-05-01T21:26:01;17224.72;;;-142.83;81.32
9129;BME280;4599;50.906;6.786;2023-05-01T21:30:31;17241.06;;;-142.83;81.38
9129;BME280;4599;50.906;6.786;2023-05-01T21:34:53;17243.13;;;-142.83;81.75
9129;BME280;4599;50.906;6.786;2023-05-01T21:39:15;17228.78;;;-142.83;82.38
9129;BME280;4599;50.906;6.786;2023-05-01T21:43:37;17257.44;;;-142.83;82.27
9129;BME280;4599;50.906;6.786;2023-05-01T21:48:00;17267.66;;;-142.83;83.27
9129;BME280;4599;50.906;6.786;2023-05-01T21:52:22;17208.34;;;-142.83;82.94
9129;BME280;4599;50.906;6.786;2023-05-01T21:56:44;17236.97;;;-142.83;82.61
9129;BME280;4599;50.906;6.786;2023-05-01T22:01:06;17273.78;;;-142.83;82.99
9129;BME280;4599;50.906;6.786;2023-05-01T22:05:30;17257.44;;;-142.83;83.71
9129;BME280;4599;50.906;6.786;2023-05-01T22:09:52;17232.88;;;-142.83;83.87
9129;BME280;4599;50.906;6.786;2023-05-01T22:14:14;17292.19;;;-142.83;83.87
9129;BME280;4599;50.906;6.786;2023-05-01T22:18:36;17265.63;;;-142.83;82.60
9129;BME280;4599;50.906;6.786;2023-05-01T22:22:59;17292.19;;;-142.83;82.75
9129;BME280;4599;50.906;6.786;2023-05-01T22:27:21;17292.19;;;-142.83;82.60
9129;BME280;4599;50.906;6.786;2023-05-01T22:31:43;17265.63;;;-142.83;82.48
9129;BME280;4599;50.906;6.786;2023-05-01T22:36:05;17273.78;;;-142.83;82.58
9129;BME280;4599;50.906;6.786;2023-05-01T22:40:29;17273.78;;;-142.83;83.09
9129;BME280;4599;50.906;6.786;2023-05-01T22:44:51;17277.88;;;-142.83;82.55
9129;BME280;4599;50.906;6.786;2023-05-01T22:49:13;17277.88;;;-142.83;82.71
9129;BME280;4599;50.906;6.786;2023-05-01T22:53:35;17247.19;;;-142.83;82.92
9129;BME280;4599;50.906;6.786;2023-05-01T22:57:58;17253.34;;;-142.83;82.26
9129;BME280;4599;50.906;6.786;2023-05-01T23:02:20;17267.66;;;-142.83;82.38
9129;BME280;4599;50.906;6.786;2023-05-01T23:06:42;17273.78;;;-142.83;81.98
9129;BME280;4599;50.906;6.786;2023-05-01T23:11:04;17271.75;;;-142.83;82.36
9129;BME280;4599;50.906;6.786;2023-05-01T23:15:27;17294.25;;;-142.83;82.77
9129;BME280;4599;50.906;6.786;2023-05-01T23:19:49;17239.03;;;-142.83;83.25